Time;durP1;ratioP1;P1;durP2;ratioP2;P2;SDS_P1;SDS_P2;PMS_P1;PMS_P2;Temp;Humidity;BMP_temperature;BMP_pressure;BME280_temperature;BME280_humidity;BME280_pressure;Samples;Min_cycle;Max_cycle;Signal;HPM_P1;HPM_P2
2022/11/12 00:01:24;;;;;;;26.63;14.10;;;7.80;99.90;;;;;;4175688;28;20539;-64
2022/11/12 00:03:26;;;;;;;23.63;15.03;;;7.80;99.90;;;;;;4193302;28;20554;-66
2022/11/12 00:05:27;;;;;;;24.80;14.90;;;7.80;99.90;;;;;;4194280;28;20439;-66
2022/11/12 00:07:28;;;;;;;24.63;13.90;;;7.80;99.90;;;;;;4193145;28;20029;-65
2022/11/12 00:09:29;;;;;;;24.33;13.47;;;7.80;99.90;;;;;;4178182;28;20095;-63
2022/11/12 00:11:30;;;;;;;25.40;15.00;;;7.70;99.90;;;;;;4176701;28;20044;-64
2022/11/12 00:13:31;;;;;;;25.87;14.73;;;7.70;99.90;;;;;;4179239;28;20041;-62
2022/11/12 00:15:33;;;;;;;24.73;14.97;;;7.70;99.90;;;;;;4192662;28;20438;-63
2022/11/12 00:17:34;;;;;;;24.27;14.57;;;7.70;99.90;;;;;;4194441;28;20540;-62
2022/11/12 00:19:35;;;;;;;26.37;14.13;;;7.70;99.90;;;;;;4195753;28;20086;-63
2022/11/12 00:21:36;;;;;;;26.53;14.70;;;7.70;99.90;;;;;;4196423;28;20029;-65
2022/11/12 00:23:37;;;;;;;25.23;13.80;;;7.70;99.90;;;;;;4179874;28;20167;-63
2022/11/12 00:25:38;;;;;;;21.57;13.57;;;7.70;99.90;;;;;;4187772;28;20036;-66
2022/11/12 00:27:39;;;;;;;22.47;13.77;;;7.80;99.90;;;;;;4190829;28;20037;-64
2022/11/12 00:29:41;;;;;;;22.07;13.97;;;7.80;99.90;;;;;;4180147;28;20037;-65
2022/11/12 00:31:42;;;;;;;26.97;14.43;;;7.80;99.90;;;;;;4179833;28;20041;-64
2022/11/12 00:33:43;;;;;;;23.83;14.40;;;7.80;99.90;;;;;;4189464;28;20045;-64
2022/11/12 00:35:44;;;;;;;20.80;13.00;;;7.80;99.90;;;;;;4197124;28;20028;-62
2022/11/12 00:37:45;;;;;;;24.33;14.17;;;7.80;99.90;;;;;;4183704;28;20435;-62
2022/11/12 00:39:46;;;;;;;21.03;13.00;;;7.80;99.90;;;;;;4191998;28;20033;-63
2022/11/12 00:41:47;;;;;;;24.87;15.53;;;7.80;99.90;;;;;;4196112;28;20076;-63
2022/11/12 00:43:48;;;;;;;27.43;15.70;;;7.90;99.90;;;;;;4183586;28;20488;-62
2022/11/12 00:45:50;;;;;;;26.67;13.10;;;7.90;99.90;;;;;;4179206;28;20045;-63
2022/11/12 00:47:55;;;;;;;31.00;14.73;;;7.90;99.90;;;;;;4180439;28;20033;-63
2022/11/12 00:49:56;;;;;;;24.93;14.20;;;7.90;99.90;;;;;;4185488;28;20094;-63
2022/11/12 00:51:58;;;;;;;24.73;14.13;;;7.90;99.90;;;;;;4195782;28;20045;-62
2022/11/12 00:53:59;;;;;;;23.80;13.30;;;7.90;99.90;;;;;;4195062;28;20024;-64
2022/11/12 00:56:02;;;;;;;28.67;13.80;;;7.90;99.90;;;;;;4196418;28;20094;-63
2022/11/12 00:58:03;;;;;;;25.13;13.53;;;7.90;99.90;;;;;;4195005;28;20028;-63
2022/11/12 01:00:06;;;;;;;22.03;12.90;;;7.90;99.90;;;;;;4196177;28;20028;-64
2022/11/12 01:02:07;;;;;;;20.93;11.97;;;7.90;99.90;;;;;;4196215;28;20017;-61
2022/11/12 01:04:09;;;;;;;19.13;11.43;;;7.90;99.90;;;;;;4194538;28;20033;-63
2022/11/12 01:06:21;;;;;;;20.77;12.50;;;7.90;99.90;;;;;;4196474;28;20063;-61
2022/11/12 01:08:22;;;;;;;21.07;12.43;;;7.90;99.90;;;;;;4194871;28;20032;-62
2022/11/12 01:10:23;;;;;;;21.33;11.60;;;8.00;99.90;;;;;;4181883;28;20044;-62
2022/11/12 01:12:24;;;;;;;22.10;12.47;;;7.90;99.90;;;;;;4179349;28;20029;-62
2022/11/12 01:14:25;;;;;;;19.83;10.87;;;7.90;99.90;;;;;;4179973;28;20382;-62
2022/11/12 01:16:30;;;;;;;17.20;10.90;;;7.90;99.90;;;;;;4179466;28;20569;-63
2022/11/12 01:18:31;;;;;;;20.83;14.53;;;7.80;99.90;;;;;;4182006;28;20045;-63
2022/11/12 01:20:32;;;;;;;24.37;16.93;;;7.70;99.90;;;;;;4194598;28;20097;-63
2022/11/12 01:22:33;;;;;;;31.03;15.93;;;7.60;99.90;;;;;;4196493;28;20480;-64
2022/11/12 01:24:34;;;;;;;30.03;18.10;;;7.60;99.90;;;;;;4195236;28;20045;-63
2022/11/12 01:26:36;;;;;;;21.67;14.33;;;7.60;99.90;;;;;;4195375;28;20443;-62
2022/11/12 01:28:37;;;;;;;22.97;13.50;;;7.50;99.90;;;;;;4194141;28;20033;-64
2022/11/12 01:30:38;;;;;;;22.30;12.50;;;7.50;99.90;;;;;;4195402;28;20020;-64
2022/11/12 01:32:40;;;;;;;21.20;12.13;;;7.50;99.90;;;;;;4195540;28;20078;-64
2022/11/12 01:34:41;;;;;;;22.27;11.27;;;7.40;99.90;;;;;;4194752;28;20553;-65
2022/11/12 01:36:42;;;;;;;25.67;10.97;;;7.40;99.90;;;;;;4194756;28;20036;-63
2022/11/12 01:38:44;;;;;;;21.23;10.83;;;7.40;99.90;;;;;;4186734;28;20374;-63
2022/11/12 01:40:46;;;;;;;21.47;11.37;;;7.40;99.90;;;;;;4179316;28;20037;-63
2022/11/12 01:42:53;;;;;;;18.37;11.50;;;7.40;99.90;;;;;;4192656;28;20036;-63
2022/11/12 01:44:54;;;;;;;25.50;12.13;;;7.40;99.90;;;;;;4188384;28;20080;-63
2022/11/12 01:47:21;;;;;;;21.90;11.40;;;7.40;99.90;;;;;;4178295;28;20091;-63
2022/11/12 01:49:36;;;;;;;18.33;9.97;;;7.50;99.90;;;;;;4162829;28;20094;-65
2022/11/12 01:51:42;;;;;;;15.40;9.93;;;7.50;99.90;;;;;;4161919;28;20033;-64
2022/11/12 01:53:48;;;;;;;22.70;10.40;;;7.60;99.90;;;;;;4162693;28;20025;-63
2022/11/12 01:55:50;;;;;;;20.03;10.80;;;7.60;99.90;;;;;;4165090;28;20084;-64
2022/11/12 01:58:13;;;;;;;20.13;11.07;;;7.60;99.90;;;;;;4179185;28;20099;-62
2022/11/12 02:00:15;;;;;;;19.27;10.77;;;7.60;99.90;;;;;;4159579;28;20049;-66
2022/11/12 02:02:16;;;;;;;19.30;10.63;;;7.70;99.90;;;;;;4179218;28;20539;-64
2022/11/12 02:04:18;;;;;;;16.33;10.13;;;7.70;99.90;;;;;;4177888;28;20106;-62
2022/11/12 02:06:20;;;;;;;16.77;10.10;;;7.60;99.90;;;;;;4179228;28;20025;-63
2022/11/12 02:08:22;;;;;;;19.17;9.63;;;7.60;99.90;;;;;;4190661;28;20036;-64
2022/11/12 02:10:24;;;;;;;19.03;10.60;;;7.70;99.90;;;;;;4195343;28;20052;-64
2022/11/12 02:14:45;;;;;;;17.13;10.10;;;7.60;99.90;;;;;;4195845;28;20082;-63
2022/11/12 02:16:47;;;;;;;16.67;10.70;;;7.60;99.90;;;;;;4193649;28;20098;-63
2022/11/12 02:18:48;;;;;;;21.07;10.37;;;7.70;99.90;;;;;;4177293;28;20087;-63
2022/11/12 02:21:01;;;;;;;18.93;10.93;;;7.70;99.90;;;;;;4194257;28;20106;-65
2022/11/12 02:23:03;;;;;;;17.50;9.97;;;7.60;99.90;;;;;;4195457;28;20040;-64
2022/11/12 02:25:06;;;;;;;16.67;9.37;;;7.60;99.90;;;;;;4192770;28;20052;-65
2022/11/12 02:27:08;;;;;;;21.47;10.57;;;7.60;99.90;;;;;;4178826;28;20415;-67
2022/11/12 02:29:09;;;;;;;14.07;9.37;;;7.60;99.90;;;;;;4176734;28;20025;-64
2022/11/12 02:31:10;;;;;;;19.60;9.57;;;7.60;99.90;;;;;;4178029;28;20063;-63
2022/11/12 02:33:11;;;;;;;18.57;9.97;;;7.70;99.90;;;;;;4178020;28;20079;-62
2022/11/12 02:35:12;;;;;;;15.37;9.70;;;7.60;99.90;;;;;;4187522;28;20016;-68
2022/11/12 02:37:13;;;;;;;14.60;9.63;;;7.70;99.90;;;;;;4194060;28;20492;-63
2022/11/12 02:39:14;;;;;;;15.83;9.73;;;7.60;99.90;;;;;;4193281;28;20102;-62
2022/11/12 02:41:16;;;;;;;18.73;10.50;;;7.70;99.90;;;;;;4193571;28;20040;-62
2022/11/12 02:43:17;;;;;;;17.53;9.57;;;7.60;99.90;;;;;;4193801;28;20033;-63
2022/11/12 02:45:18;;;;;;;19.87;10.57;;;7.60;99.90;;;;;;4195147;28;20045;-63
2022/11/12 02:47:20;;;;;;;16.40;9.93;;;7.60;99.90;;;;;;4193017;28;20044;-62
2022/11/12 02:49:21;;;;;;;16.20;10.00;;;7.60;99.90;;;;;;4195116;28;20545;-61
2022/11/12 02:51:22;;;;;;;16.53;9.60;;;7.60;99.90;;;;;;4192154;28;20435;-62
2022/11/12 02:53:23;;;;;;;15.93;9.13;;;7.60;99.90;;;;;;4194998;28;20036;-62
2022/11/12 02:55:24;;;;;;;14.70;9.13;;;7.60;99.90;;;;;;4188743;28;20090;-62
2022/11/12 02:57:26;;;;;;;16.90;9.07;;;7.60;99.90;;;;;;4194880;28;20024;-63
2022/11/12 02:59:27;;;;;;;19.47;9.50;;;7.60;99.90;;;;;;4193206;28;20488;-61
2022/11/12 03:01:28;;;;;;;18.13;9.20;;;7.60;99.90;;;;;;4194738;28;20464;-68
2022/11/12 03:03:29;;;;;;;16.60;8.97;;;7.60;99.90;;;;;;4194292;28;20051;-60
2022/11/12 03:05:33;;;;;;;22.23;12.60;;;7.60;99.90;;;;;;4177924;28;20053;-64
2022/11/12 03:07:34;;;;;;;17.87;9.47;;;7.60;99.90;;;;;;4177760;28;20037;-62
2022/11/12 03:09:35;;;;;;;17.97;9.47;;;7.60;99.90;;;;;;4176438;28;20091;-63
2022/11/12 03:11:36;;;;;;;16.30;8.83;;;7.60;99.90;;;;;;4177963;28;20029;-63
2022/11/12 03:13:38;;;;;;;16.87;8.67;;;7.60;99.90;;;;;;4177485;28;20063;-62
2022/11/12 03:15:39;;;;;;;12.60;8.03;;;7.60;99.90;;;;;;4160607;28;20029;-68
2022/11/12 03:17:40;;;;;;;12.87;8.23;;;7.60;99.90;;;;;;4177058;28;20476;-67
2022/11/12 03:19:41;;;;;;;12.27;8.07;;;7.60;99.90;;;;;;4178083;28;20087;-62
2022/11/12 03:21:42;;;;;;;14.73;8.23;;;7.60;99.90;;;;;;4190398;28;20036;-62
2022/11/12 03:23:43;;;;;;;15.90;8.40;;;7.60;99.90;;;;;;4193608;28;20040;-62
2022/11/12 03:25:44;;;;;;;14.13;8.73;;;7.60;99.90;;;;;;4175161;28;20118;-63
2022/11/12 03:27:45;;;;;;;19.77;9.47;;;7.50;99.90;;;;;;4194814;28;20028;-62
2022/11/12 03:29:46;;;;;;;20.30;10.07;;;7.50;99.90;;;;;;4193606;28;20427;-62
2022/11/12 03:31:48;;;;;;;24.43;11.17;;;7.40;99.90;;;;;;4194475;28;20070;-61
2022/11/12 03:33:49;;;;;;;17.77;10.63;;;7.40;99.90;;;;;;4193111;28;20090;-63
2022/11/12 03:35:50;;;;;;;27.87;15.07;;;7.40;99.90;;;;;;4194160;28;20070;-62
2022/11/12 03:37:52;;;;;;;31.93;19.13;;;7.40;99.90;;;;;;4194194;28;20024;-62
2022/11/12 03:39:53;;;;;;;38.10;22.30;;;7.30;99.90;;;;;;4183012;28;20066;-62
2022/11/12 03:41:54;;;;;;;32.47;17.93;;;7.30;99.90;;;;;;4178716;28;20394;-63
2022/11/12 03:43:55;;;;;;;27.03;15.07;;;7.30;99.90;;;;;;4177248;28;20539;-63
2022/11/12 03:45:56;;;;;;;25.97;13.70;;;7.20;99.90;;;;;;4177793;28;20060;-65
2022/11/12 03:47:58;;;;;;;20.67;11.10;;;7.10;99.90;;;;;;4176701;28;20021;-65
2022/11/12 03:50:00;;;;;;;14.83;8.80;;;7.10;99.90;;;;;;4177940;28;20102;-63
2022/11/12 03:52:01;;;;;;;14.53;8.53;;;7.10;99.90;;;;;;4176809;28;20502;-63
2022/11/12 03:54:03;;;;;;;13.87;7.67;;;7.00;99.90;;;;;;4179811;28;20075;-64
2022/11/12 03:56:04;;;;;;;14.93;8.27;;;7.00;99.90;;;;;;4162059;28;20033;-64
2022/11/12 03:58:05;;;;;;;13.27;7.80;;;7.00;99.90;;;;;;4181224;28;20025;-63
2022/11/12 04:00:08;;;;;;;13.17;7.60;;;6.90;99.90;;;;;;4182161;28;20094;-63
2022/11/12 04:02:13;;;;;;;14.57;7.43;;;6.90;99.90;;;;;;4196787;28;20090;-64
2022/11/12 04:04:14;;;;;;;15.20;8.00;;;6.90;99.90;;;;;;4186008;28;20846;-62
2022/11/12 04:08:35;;;;;;;20.93;8.27;;;6.80;99.90;;;;;;4179932;28;20033;-63
2022/11/12 04:10:36;;;;;;;14.73;8.30;;;6.70;99.90;;;;;;4145302;28;20045;-65
2022/11/12 04:14:57;;;;;;;23.07;11.07;;;6.70;99.90;;;;;;4147661;28;20050;-62
2022/11/12 04:21:54;;;;;;;21.13;10.57;;;6.50;99.90;;;;;;4146945;28;20809;-66
2022/11/12 04:23:55;;;;;;;17.90;10.83;;;6.50;99.90;;;;;;4178684;28;20082;-63
2022/11/12 04:28:16;;;;;;;19.38;11.30;;;6.50;99.90;;;;;;4180704;28;20534;-62
2022/11/12 04:30:18;;;;;;;24.87;13.80;;;6.40;99.90;;;;;;4177880;28;20082;-61
2022/11/12 04:32:19;;;;;;;21.13;13.07;;;6.40;99.90;;;;;;4180259;28;20025;-63
2022/11/12 04:34:30;;;;;;;21.30;11.83;;;6.30;99.90;;;;;;4178664;28;20037;-62
2022/11/12 04:36:31;;;;;;;27.80;12.55;;;6.20;99.90;;;;;;4180226;28;20036;-63
2022/11/12 04:38:32;;;;;;;21.73;11.10;;;6.20;99.90;;;;;;4179897;28;20033;-65
2022/11/12 04:45:13;;;;;;;17.55;10.52;;;6.10;99.90;;;;;;4170429;28;20468;-63
2022/11/12 04:47:15;;;;;;;19.67;11.80;;;6.00;99.90;;;;;;4170298;28;20049;-64
2022/11/12 04:49:16;;;;;;;25.77;13.73;;;6.00;99.90;;;;;;4163282;28;20087;-63
2022/11/12 04:53:36;;;;;;;26.70;14.27;;;5.90;99.90;;;;;;4163473;28;20059;-66
2022/11/12 04:55:38;;;;;;;29.13;14.57;;;5.80;99.90;;;;;;4163698;28;20041;-63
2022/11/12 04:57:39;;;;;;;21.80;13.60;;;5.80;99.90;;;;;;4162690;28;20025;-65
2022/11/12 04:59:40;;;;;;;21.37;12.53;;;5.80;99.90;;;;;;4168962;28;20106;-62
2022/11/12 05:01:41;;;;;;;20.80;12.70;;;5.80;99.90;;;;;;4172156;28;20477;-61
2022/11/12 05:03:42;;;;;;;26.27;14.03;;;5.80;99.90;;;;;;4163489;28;20029;-66
2022/11/12 05:05:43;;;;;;;26.80;12.87;;;5.80;99.90;;;;;;4161005;28;20034;-63
2022/11/12 05:07:44;;;;;;;23.97;12.57;;;5.80;99.90;;;;;;4163009;28;20099;-62
2022/11/12 05:09:46;;;;;;;26.00;13.63;;;5.80;99.90;;;;;;4171124;28;20550;-62
2022/11/12 05:11:47;;;;;;;20.23;12.60;;;5.70;99.90;;;;;;4179322;28;20707;-63
2022/11/12 05:13:48;;;;;;;24.13;13.00;;;5.80;99.90;;;;;;4177528;28;20041;-64
2022/11/12 05:15:49;;;;;;;24.93;14.37;;;5.70;99.90;;;;;;4179179;28;20033;-62
2022/11/12 05:17:51;;;;;;;24.40;13.77;;;5.80;99.90;;;;;;4178589;28;20029;-62
2022/11/12 05:19:52;;;;;;;20.53;12.70;;;5.80;99.90;;;;;;4179070;28;20037;-62
2022/11/12 05:22:05;;;;;;;30.57;16.63;;;5.70;99.90;;;;;;4179094;28;20500;-66
2022/11/12 05:24:06;;;;;;;27.80;15.30;;;5.70;99.90;;;;;;4179075;28;20017;-62
2022/11/12 05:26:08;;;;;;;25.27;15.67;;;5.70;99.90;;;;;;4178615;28;20096;-61
2022/11/12 05:28:09;;;;;;;29.07;16.57;;;5.60;99.90;;;;;;4178307;28;20033;-62
2022/11/12 05:30:10;;;;;;;35.10;19.20;;;5.60;99.90;;;;;;4178954;28;20071;-63
2022/11/12 05:32:14;;;;;;;36.43;19.07;;;5.60;99.90;;;;;;4177995;28;20075;-62
2022/11/12 05:34:15;;;;;;;44.63;22.10;;;5.60;99.90;;;;;;4179021;28;20094;-63
2022/11/12 05:36:16;;;;;;;29.97;17.90;;;5.70;99.90;;;;;;4178288;28;20037;-63
2022/11/12 05:38:17;;;;;;;38.30;20.27;;;5.80;99.90;;;;;;4185400;28;20534;-63
2022/11/12 05:40:18;;;;;;;41.90;20.77;;;5.90;99.90;;;;;;4193891;28;20040;-61
2022/11/12 05:42:20;;;;;;;47.73;22.30;;;6.00;99.90;;;;;;4195728;28;20071;-61
2022/11/12 05:44:21;;;;;;;33.43;17.00;;;6.20;99.90;;;;;;4192583;28;20460;-63
2022/11/12 05:46:22;;;;;;;29.43;14.57;;;6.40;99.90;;;;;;4194303;28;20110;-62
2022/11/12 05:48:23;;;;;;;22.37;13.33;;;6.50;99.90;;;;;;4193517;28;20105;-61
2022/11/12 05:50:24;;;;;;;25.17;14.07;;;6.60;99.90;;;;;;4181853;28;20037;-62
2022/11/12 05:52:25;;;;;;;26.37;13.27;;;6.80;99.90;;;;;;4177340;28;20083;-64
2022/11/12 05:54:26;;;;;;;22.87;12.80;;;7.00;99.90;;;;;;4178248;28;20040;-64
2022/11/12 05:56:28;;;;;;;27.43;11.20;;;7.30;99.90;;;;;;4178022;28;20025;-63
2022/11/12 05:58:30;;;;;;;21.27;10.70;;;7.50;99.90;;;;;;4177261;28;20098;-62
2022/11/12 06:00:37;;;;;;;27.43;10.90;;;7.60;99.90;;;;;;4178137;28;20020;-66
2022/11/12 06:02:38;;;;;;;24.67;11.53;;;7.70;99.90;;;;;;4177338;28;20033;-62
2022/11/12 06:04:39;;;;;;;20.73;10.27;;;7.90;99.90;;;;;;4178417;28;20029;-66
2022/11/12 06:06:42;;;;;;;22.30;10.23;;;8.20;99.90;;;;;;4177241;28;20443;-61
2022/11/12 06:08:43;;;;;;;16.93;10.50;;;8.70;99.90;;;;;;4177397;28;20091;-62
2022/11/12 06:10:48;;;;;;;20.17;11.60;;;9.00;99.90;;;;;;4177275;28;20029;-63
2022/11/12 06:12:50;;;;;;;18.87;10.63;;;9.30;99.90;;;;;;4178474;28;20667;-62
2022/11/12 06:14:52;;;;;;;18.73;10.60;;;9.50;99.90;;;;;;4185019;28;20029;-62
2022/11/12 06:16:53;;;;;;;14.70;9.70;;;9.70;99.90;;;;;;4194916;28;20743;-62
2022/11/12 06:18:54;;;;;;;17.80;10.70;;;10.00;99.90;;;;;;4192987;28;20040;-64
2022/11/12 06:21:23;;;;;;;15.57;9.00;;;10.30;99.90;;;;;;4193789;28;20484;-62
2022/11/12 06:23:24;;;;;;;18.30;9.43;;;10.80;99.90;;;;;;4193899;28;20059;-62
2022/11/12 06:25:25;;;;;;;26.87;12.30;;;11.20;99.90;;;;;;4193218;28;20048;-62
2022/11/12 06:27:26;;;;;;;19.07;10.57;;;11.40;99.90;;;;;;4180406;28;20036;-63
2022/11/12 06:29:29;;;;;;;19.57;9.93;;;11.50;99.90;;;;;;4190810;28;20029;-62
2022/11/12 06:31:30;;;;;;;18.03;10.30;;;11.70;99.90;;;;;;4176947;28;20057;-65
2022/11/12 06:33:31;;;;;;;17.10;10.03;;;11.70;99.90;;;;;;4177806;28;20033;-62
2022/11/12 06:35:32;;;;;;;19.65;10.02;;;11.60;99.90;;;;;;4177351;28;20029;-67
2022/11/12 06:37:33;;;;;;;16.15;9.45;;;11.80;99.90;;;;;;4177783;28;20031;-67
2022/11/12 06:39:34;;;;;;;16.65;9.98;;;11.90;99.90;;;;;;4178484;28;20040;-67
2022/11/12 06:41:35;;;;;;;15.10;8.52;;;12.00;99.90;;;;;;4177547;28;20078;-65
2022/11/12 06:43:37;;;;;;;19.80;9.80;;;12.00;99.90;;;;;;4178129;28;20017;-67
2022/11/12 06:45:38;;;;;;;14.70;10.30;;;12.10;99.90;;;;;;4177348;28;20033;-61
2022/11/12 06:47:39;;;;;;;19.23;9.77;;;12.20;99.90;;;;;;4178107;28;20078;-63
2022/11/12 06:49:40;;;;;;;17.05;11.20;;;12.10;99.90;;;;;;4188003;28;20040;-64
2022/11/12 06:51:42;;;;;;;16.70;10.48;;;12.00;99.90;;;;;;4194516;28;20029;-64
2022/11/12 06:53:43;;;;;;;23.05;12.63;;;12.40;99.90;;;;;;4193356;28;20419;-67
2022/11/12 06:55:44;;;;;;;34.30;20.25;;;12.30;99.90;;;;;;4194813;28;20052;-66
2022/11/12 06:57:50;;;;;;;26.35;16.48;;;12.40;99.90;;;;;;4193664;28;20036;-65
2022/11/12 06:59:52;;;;;;;31.10;17.75;;;12.30;99.90;;;;;;4194388;28;20024;-65
2022/11/12 07:01:53;;;;;;;19.95;10.80;;;11.90;99.90;;;;;;4193096;28;20032;-66
2022/11/12 07:03:54;;;;;;;15.25;10.55;;;11.60;99.90;;;;;;4194278;28;20555;-64
2022/11/12 07:05:55;;;;;;;18.52;10.93;;;11.50;99.90;;;;;;4192569;28;20447;-64
2022/11/12 07:07:56;;;;;;;21.38;13.65;;;11.60;99.90;;;;;;4189421;28;20036;-65
2022/11/12 07:09:57;;;;;;;24.63;13.68;;;11.30;99.90;;;;;;4186669;28;20037;-69
2022/11/12 07:11:58;;;;;;;24.05;14.20;;;10.80;99.90;;;;;;4176312;28;20048;-67
2022/11/12 07:13:59;;;;;;;27.27;15.70;;;10.80;99.90;;;;;;4159247;28;20038;-63
2022/11/12 07:16:02;;;;;;;26.03;14.90;;;10.50;99.90;;;;;;4175867;28;20075;-69
2022/11/12 07:18:03;;;;;;;26.60;13.67;;;10.30;99.90;;;;;;4178345;28;20350;-71
2022/11/12 07:20:05;;;;;;;24.43;13.60;;;10.40;99.90;;;;;;4176726;28;20025;-69
2022/11/12 07:22:06;;;;;;;28.50;14.53;;;10.60;99.90;;;;;;4178060;28;20029;-65
2022/11/12 07:24:08;;;;;;;26.27;13.27;;;10.60;99.90;;;;;;4175962;28;20094;-68
2022/11/12 07:26:21;;;;;;;18.90;12.50;;;10.50;99.90;;;;;;4178878;28;20067;-67
2022/11/12 07:28:23;;;;;;;21.53;12.57;;;10.40;99.90;;;;;;4181244;28;20435;-66
2022/11/12 07:30:24;;;;;;;26.80;14.23;;;10.40;99.90;;;;;;4179331;28;20040;-66
2022/11/12 07:32:25;;;;;;;27.37;13.87;;;10.20;99.90;;;;;;4184460;28;20178;-64
2022/11/12 07:34:26;;;;;;;21.37;14.47;;;10.40;99.90;;;;;;4181062;28;20432;-67
2022/11/12 07:36:27;;;;;;;26.33;15.07;;;10.30;99.90;;;;;;4181183;28;20032;-64
2022/11/12 07:38:31;;;;;;;33.23;18.70;;;10.10;99.90;;;;;;4181925;28;20037;-64
2022/11/12 07:40:32;;;;;;;33.17;16.17;;;9.90;99.90;;;;;;4179902;28;20029;-65
2022/11/12 07:42:34;;;;;;;30.83;15.70;;;10.20;99.90;;;;;;4184781;28;20029;-66
2022/11/12 07:44:35;;;;;;;20.37;12.90;;;10.30;99.90;;;;;;4185826;28;20059;-65
2022/11/12 07:46:36;;;;;;;20.13;12.43;;;10.40;99.90;;;;;;4184212;28;20099;-65
2022/11/12 07:48:38;;;;;;;23.97;13.20;;;10.50;99.90;;;;;;4188849;28;20033;-68
2022/11/12 07:50:41;;;;;;;23.53;12.80;;;10.50;99.90;;;;;;4191749;28;20029;-66
2022/11/12 07:52:42;;;;;;;23.33;12.70;;;10.70;99.90;;;;;;4180740;28;20021;-66
2022/11/12 07:54:43;;;;;;;21.63;14.10;;;10.70;99.90;;;;;;4179738;28;20475;-68
2022/11/12 07:56:44;;;;;;;23.73;14.53;;;10.70;99.90;;;;;;4180530;28;20033;-67
2022/11/12 07:58:46;;;;;;;27.43;15.13;;;10.50;99.90;;;;;;4178834;28;20077;-71
2022/11/12 08:00:47;;;;;;;26.73;15.63;;;10.50;99.90;;;;;;4180658;28;20045;-64
2022/11/12 08:02:48;;;;;;;26.43;16.10;;;10.30;99.90;;;;;;4179544;28;20037;-68
2022/11/12 08:04:49;;;;;;;27.67;16.17;;;10.30;99.90;;;;;;4180628;28;20097;-67
2022/11/12 08:06:51;;;;;;;26.43;15.77;;;10.30;99.90;;;;;;4179293;28;20041;-65
2022/11/12 08:08:53;;;;;;;26.17;13.33;;;10.20;99.90;;;;;;4180446;28;20090;-69
2022/11/12 08:10:58;;;;;;;27.47;15.70;;;10.00;99.90;;;;;;4179243;28;20140;-70
2022/11/12 08:12:59;;;;;;;29.23;15.17;;;9.80;99.90;;;;;;4180494;28;20503;-66
2022/11/12 08:15:00;;;;;;;21.10;13.00;;;9.90;99.90;;;;;;4179531;28;20435;-66
2022/11/12 08:17:01;;;;;;;21.63;13.33;;;9.90;99.90;;;;;;4179352;28;20087;-64
2022/11/12 08:19:03;;;;;;;28.10;13.37;;;9.90;99.90;;;;;;4179209;28;20077;-65
2022/11/12 08:21:06;;;;;;;21.73;12.73;;;9.80;99.90;;;;;;4160991;28;20866;-68
2022/11/12 08:23:08;;;;;;;21.17;12.90;;;9.80;99.90;;;;;;4169868;28;20086;-65
2022/11/12 08:25:09;;;;;;;23.83;13.90;;;9.60;99.90;;;;;;4178953;28;20033;-67
2022/11/12 08:27:11;;;;;;;21.33;13.13;;;9.50;99.90;;;;;;4186103;28;20040;-67
2022/11/12 08:29:12;;;;;;;23.20;13.03;;;9.40;99.90;;;;;;4178866;28;20040;-67
2022/11/12 08:31:19;;;;;;;23.17;13.33;;;9.50;99.90;;;;;;4179455;28;20413;-65
2022/11/12 08:33:20;;;;;;;27.03;14.03;;;9.60;99.90;;;;;;4187445;28;20439;-65
2022/11/12 08:35:23;;;;;;;23.57;14.07;;;9.70;99.90;;;;;;4185257;28;20033;-67
2022/11/12 08:37:24;;;;;;;24.23;13.47;;;9.60;99.90;;;;;;4185695;28;20496;-66
2022/11/12 08:39:25;;;;;;;28.07;14.70;;;9.60;99.90;;;;;;4188705;28;20090;-65
2022/11/12 08:41:26;;;;;;;23.70;14.70;;;9.60;99.90;;;;;;4180437;28;20032;-67
2022/11/12 08:43:27;;;;;;;24.40;15.70;;;9.60;99.90;;;;;;4191580;28;20086;-66
2022/11/12 08:45:31;;;;;;;25.27;15.30;;;9.60;99.90;;;;;;4193902;28;20153;-64
2022/11/12 08:47:32;;;;;;;28.13;16.03;;;9.60;99.90;;;;;;4190688;28;20402;-66
2022/11/12 08:49:33;;;;;;;28.40;16.70;;;9.50;99.90;;;;;;4188470;28;20036;-65
2022/11/12 08:51:34;;;;;;;26.37;15.67;;;9.40;99.90;;;;;;4179160;28;20029;-63
2022/11/12 08:53:35;;;;;;;29.33;15.27;;;9.40;99.90;;;;;;4180457;28;20029;-65
2022/11/12 08:55:37;;;;;;;29.63;16.17;;;9.40;99.90;;;;;;4178593;28;20025;-66
2022/11/12 08:57:41;;;;;;;24.90;15.87;;;9.40;99.90;;;;;;4195174;28;20040;-64
2022/11/12 08:59:42;;;;;;;24.43;16.47;;;9.40;99.90;;;;;;4181041;28;20041;-64
2022/11/12 09:01:43;;;;;;;29.17;15.83;;;9.40;99.90;;;;;;4160665;28;20165;-64
2022/11/12 09:03:44;;;;;;;26.00;16.63;;;9.60;99.90;;;;;;4185856;28;20553;-65
2022/11/12 09:05:46;;;;;;;25.57;15.40;;;9.60;99.90;;;;;;4187620;28;20513;-64
2022/11/12 09:07:55;;;;;;;25.17;15.23;;;9.70;99.90;;;;;;4178688;28;20045;-64
2022/11/12 09:09:57;;;;;;;25.97;16.10;;;9.70;99.90;;;;;;4188412;28;20048;-63
2022/11/12 09:11:58;;;;;;;24.53;14.93;;;9.50;99.90;;;;;;4187280;28;20082;-68
2022/11/12 09:13:59;;;;;;;24.77;14.90;;;9.40;99.90;;;;;;4189074;28;20086;-65
2022/11/12 09:16:05;;;;;;;21.43;14.40;;;9.30;99.90;;;;;;4182749;28;20075;-64
2022/11/12 09:18:12;;;;;;;25.07;15.20;;;9.00;99.90;;;;;;4183878;28;20098;-64
2022/11/12 09:20:13;;;;;;;27.77;15.97;;;9.00;99.90;;;;;;4185384;28;20025;-63
2022/11/12 09:22:14;;;;;;;27.63;15.40;;;8.90;99.90;;;;;;4181376;28;20052;-65
2022/11/12 09:24:15;;;;;;;27.70;16.47;;;8.80;99.90;;;;;;4186828;28;20484;-65
2022/11/12 09:26:17;;;;;;;26.40;16.27;;;8.80;99.90;;;;;;4186942;28;20041;-65
2022/11/12 09:28:18;;;;;;;29.43;17.50;;;8.80;99.90;;;;;;4187413;28;20090;-63
2022/11/12 09:30:20;;;;;;;26.17;15.10;;;8.80;99.90;;;;;;4183786;28;20500;-70
2022/11/12 09:32:21;;;;;;;27.20;15.83;;;8.90;99.90;;;;;;4165905;28;20075;-65
2022/11/12 09:34:22;;;;;;;29.57;17.10;;;8.80;99.90;;;;;;4191115;28;20090;-66
2022/11/12 09:36:23;;;;;;;25.60;15.70;;;8.90;99.90;;;;;;4195690;28;20040;-66
2022/11/12 09:38:24;;;;;;;26.17;14.77;;;9.00;99.90;;;;;;4176316;28;20071;-67
2022/11/12 09:40:49;;;;;;;26.40;15.53;;;8.90;99.90;;;;;;4183132;28;20025;-67
2022/11/12 09:42:54;;;;;;;26.63;16.53;;;8.80;99.90;;;;;;4179529;28;20033;-65
2022/11/12 09:45:02;;;;;;;25.23;15.70;;;8.80;99.90;;;;;;4179047;28;20028;-64
2022/11/12 09:47:26;;;;;;;26.60;15.90;;;8.80;99.90;;;;;;4178685;28;20493;-63
2022/11/12 09:49:29;;;;;;;26.73;16.23;;;8.90;99.90;;;;;;4162590;28;20025;-65
2022/11/12 09:51:38;;;;;;;28.27;16.93;;;8.80;99.90;;;;;;4160534;28;20119;-63
2022/11/12 09:53:49;;;;;;;26.33;15.80;;;9.00;99.90;;;;;;4162539;28;20080;-65
2022/11/12 09:55:50;;;;;;;25.20;16.40;;;9.00;99.90;;;;;;4160662;28;20045;-64
2022/11/12 09:57:51;;;;;;;25.37;16.17;;;8.90;99.90;;;;;;4162397;28;20075;-64
2022/11/12 09:59:53;;;;;;;25.60;15.87;;;8.90;99.90;;;;;;4161273;28;20041;-64
2022/11/12 10:01:59;;;;;;;30.67;17.07;;;9.00;99.90;;;;;;4162319;28;20455;-64
2022/11/12 10:04:18;;;;;;;25.17;14.53;;;8.90;99.90;;;;;;4161254;28;20037;-64
2022/11/12 10:06:23;;;;;;;28.37;16.53;;;8.80;99.90;;;;;;4162105;28;20431;-64
2022/11/12 10:08:47;;;;;;;27.43;16.63;;;8.80;99.90;;;;;;4161156;28;20473;-64
2022/11/12 10:11:09;;;;;;;25.80;15.40;;;8.80;99.90;;;;;;4161967;28;20049;-63
2022/11/12 10:13:43;;;;;;;28.33;15.60;;;8.80;99.90;;;;;;4161403;28;20087;-64
2022/11/12 10:18:40;;;;;;;24.70;15.53;;;8.70;99.90;;;;;;4161693;28;20096;-64
2022/11/12 10:21:12;;;;;;;27.07;15.40;;;8.70;99.90;;;;;;4143237;28;20445;-64
2022/11/12 10:23:38;;;;;;;29.93;17.17;;;8.80;99.90;;;;;;4162126;28;20030;-66
2022/11/12 10:25:43;;;;;;;29.57;17.43;;;8.80;99.90;;;;;;4160113;28;20049;-64
2022/11/12 10:27:45;;;;;;;28.20;16.93;;;8.80;99.90;;;;;;4161817;28;20428;-64
2022/11/12 10:30:00;;;;;;;28.13;17.27;;;8.80;99.90;;;;;;4160636;28;20084;-65
2022/11/12 10:32:02;;;;;;;25.23;15.27;;;8.80;99.90;;;;;;4161550;28;20109;-64
2022/11/12 10:34:12;;;;;;;26.60;16.97;;;8.80;99.90;;;;;;4160722;28;20064;-67
2022/11/12 10:36:28;;;;;;;25.55;15.15;;;8.80;99.90;;;;;;4161667;28;20103;-66
2022/11/12 10:38:33;;;;;;;29.57;15.73;;;8.80;99.90;;;;;;4160421;28;20038;-65
2022/11/12 10:40:37;;;;;;;25.57;15.80;;;8.80;99.90;;;;;;4161649;28;20033;-64
2022/11/12 10:43:03;;;;;;;22.37;14.40;;;8.90;99.90;;;;;;4160841;28;20033;-64
2022/11/12 10:45:21;;;;;;;29.17;17.00;;;8.90;99.90;;;;;;4160998;28;20033;-64
2022/11/12 10:47:41;;;;;;;25.63;14.93;;;9.00;99.90;;;;;;4160344;28;20037;-64
2022/11/12 10:49:42;;;;;;;30.85;15.75;;;8.90;99.90;;;;;;4160737;28;20111;-64
2022/11/12 10:51:55;;;;;;;27.60;15.43;;;8.90;99.90;;;;;;4159394;28;20523;-66
2022/11/12 10:53:56;;;;;;;31.33;19.13;;;8.90;99.90;;;;;;4161608;28;20029;-64
2022/11/12 10:56:00;;;;;;;28.23;16.50;;;8.80;99.90;;;;;;4142062;28;20038;-64